sensor_id;sensor_type;location;lat;lon;timestamp;temperature;humidity
11989;DHT22;6054;50.966;7.094;2023-03-04T00:00:55;10.80;44.40
11989;DHT22;6054;50.966;7.094;2023-03-04T00:03:21;10.80;44.50
11989;DHT22;6054;50.966;7.094;2023-03-04T00:05:48;10.90;44.20
11989;DHT22;6054;50.966;7.094;2023-03-04T00:08:15;10.80;44.40
11989;DHT22;6054;50.966;7.094;2023-03-04T00:10:42;10.80;44.40
11989;DHT22;6054;50.966;7.094;2023-03-04T00:13:10;10.80;44.80
11989;DHT22;6054;50.966;7.094;2023-03-04T00:15:37;10.80;44.40
11989;DHT22;6054;50.966;7.094;2023-03-04T00:18:04;10.80;44.30
11989;DHT22;6054;50.966;7.094;2023-03-04T00:20:31;10.80;44.10
11989;DHT22;6054;50.966;7.094;2023-03-04T00:22:58;10.80;44.30
11989;DHT22;6054;50.966;7.094;2023-03-04T00:25:24;10.80;44.40
11989;DHT22;6054;50.966;7.094;2023-03-04T00:27:51;10.80;44.40
11989;DHT22;6054;50.966;7.094;2023-03-04T00:30:19;10.80;44.40
11989;DHT22;6054;50.966;7.094;2023-03-04T00:32:46;10.80;44.90
11989;DHT22;6054;50.966;7.094;2023-03-04T00:35:13;10.80;44.00
11989;DHT22;6054;50.966;7.094;2023-03-04T00:37:40;10.80;44.40
11989;DHT22;6054;50.966;7.094;2023-03-04T00:40:07;10.70;44.50
11989;DHT22;6054;50.966;7.094;2023-03-04T00:42:34;10.80;44.90
11989;DHT22;6054;50.966;7.094;2023-03-04T00:45:01;10.80;44.60
11989;DHT22;6054;50.966;7.094;2023-03-04T00:47:29;10.70;44.40
11989;DHT22;6054;50.966;7.094;2023-03-04T00:49:56;10.70;44.40
11989;DHT22;6054;50.966;7.094;2023-03-04T00:52:23;10.70;44.40
11989;DHT22;6054;50.966;7.094;2023-03-04T00:54:50;10.70;44.40
11989;DHT22;6054;50.966;7.094;2023-03-04T00:57:16;10.70;44.30
11989;DHT22;6054;50.966;7.094;2023-03-04T00:59:43;10.70;44.40
11989;DHT22;6054;50.966;7.094;2023-03-04T01:02:10;10.70;44.20
11989;DHT22;6054;50.966;7.094;2023-03-04T01:04:38;10.70;44.70
11989;DHT22;6054;50.966;7.094;2023-03-04T01:07:06;10.70;44.50
11989;DHT22;6054;50.966;7.094;2023-03-04T01:09:33;10.70;44.70
11989;DHT22;6054;50.966;7.094;2023-03-04T01:11:59;10.90;44.60
11989;DHT22;6054;50.966;7.094;2023-03-04T01:14:26;10.70;44.70
11989;DHT22;6054;50.966;7.094;2023-03-04T01:16:53;10.70;44.70
11989;DHT22;6054;50.966;7.094;2023-03-04T01:19:20;10.70;44.80
11989;DHT22;6054;50.966;7.094;2023-03-04T01:21:48;10.70;45.00
11989;DHT22;6054;50.966;7.094;2023-03-04T01:24:15;10.70;45.00
11989;DHT22;6054;50.966;7.094;2023-03-04T01:26:42;10.70;44.90
11989;DHT22;6054;50.966;7.094;2023-03-04T01:29:08;10.70;44.80
11989;DHT22;6054;50.966;7.094;2023-03-04T01:31:35;10.70;44.90
11989;DHT22;6054;50.966;7.094;2023-03-04T01:34:02;10.70;44.70
11989;DHT22;6054;50.966;7.094;2023-03-04T01:36:29;10.70;45.00
11989;DHT22;6054;50.966;7.094;2023-03-04T01:38:57;10.90;44.90
11989;DHT22;6054;50.966;7.094;2023-03-04T01:41:25;10.60;44.40
11989;DHT22;6054;50.966;7.094;2023-03-04T01:43:54;10.60;45.00
11989;DHT22;6054;50.966;7.094;2023-03-04T01:46:22;10.70;45.20
11989;DHT22;6054;50.966;7.094;2023-03-04T01:48:49;10.70;45.30
11989;DHT22;6054;50.966;7.094;2023-03-04T01:51:17;10.70;44.90
11989;DHT22;6054;50.966;7.094;2023-03-04T01:53:46;10.90;45.40
11989;DHT22;6054;50.966;7.094;2023-03-04T01:56:20;10.60;45.10
11989;DHT22;6054;50.966;7.094;2023-03-04T01:59:07;10.60;45.20
11989;DHT22;6054;50.966;7.094;2023-03-04T02:01:34;10.60;45.30
11989;DHT22;6054;50.966;7.094;2023-03-04T02:04:01;10.60;45.20
11989;DHT22;6054;50.966;7.094;2023-03-04T02:06:28;10.60;45.00
11989;DHT22;6054;50.966;7.094;2023-03-04T02:08:55;10.60;45.20
11989;DHT22;6054;50.966;7.094;2023-03-04T02:11:24;10.60;45.20
11989;DHT22;6054;50.966;7.094;2023-03-04T02:13:51;10.60;44.90
11989;DHT22;6054;50.966;7.094;2023-03-04T02:16:19;10.60;45.30
11989;DHT22;6054;50.966;7.094;2023-03-04T02:18:45;10.60;45.00
11989;DHT22;6054;50.966;7.094;2023-03-04T02:21:18;10.60;45.20
11989;DHT22;6054;50.966;7.094;2023-03-04T02:23:54;10.70;45.50
11989;DHT22;6054;50.966;7.094;2023-03-04T02:26:26;10.90;45.60
11989;DHT22;6054;50.966;7.094;2023-03-04T02:28:54;10.70;45.40
11989;DHT22;6054;50.966;7.094;2023-03-04T02:31:24;10.60;45.20
11989;DHT22;6054;50.966;7.094;2023-03-04T02:33:53;10.70;45.50
11989;DHT22;6054;50.966;7.094;2023-03-04T02:36:21;10.70;45.50
11989;DHT22;6054;50.966;7.094;2023-03-04T02:38:49;10.70;45.50
11989;DHT22;6054;50.966;7.094;2023-03-04T02:41:19;10.60;45.50
11989;DHT22;6054;50.966;7.094;2023-03-04T02:43:50;10.70;45.60
11989;DHT22;6054;50.966;7.094;2023-03-04T02:46:17;10.60;45.50
11989;DHT22;6054;50.966;7.094;2023-03-04T02:48:44;10.70;45.70
11989;DHT22;6054;50.966;7.094;2023-03-04T02:51:11;10.70;45.40
11989;DHT22;6054;50.966;7.094;2023-03-04T02:53:38;10.70;45.50
11989;DHT22;6054;50.966;7.094;2023-03-04T02:56:05;10.90;45.40
11989;DHT22;6054;50.966;7.094;2023-03-04T02:58:32;10.70;45.70
11989;DHT22;6054;50.966;7.094;2023-03-04T03:01:00;10.70;45.20
11989;DHT22;6054;50.966;7.094;2023-03-04T03:03:27;10.70;45.50
11989;DHT22;6054;50.966;7.094;2023-03-04T03:05:53;10.70;45.30
11989;DHT22;6054;50.966;7.094;2023-03-04T03:08:20;10.70;45.60
11989;DHT22;6054;50.966;7.094;2023-03-04T03:10:47;10.70;45.50
11989;DHT22;6054;50.966;7.094;2023-03-04T03:13:14;10.70;45.60
11989;DHT22;6054;50.966;7.094;2023-03-04T03:15:40;10.70;45.40
11989;DHT22;6054;50.966;7.094;2023-03-04T03:18:09;10.70;45.50
11989;DHT22;6054;50.966;7.094;2023-03-04T03:20:35;10.70;45.50
11989;DHT22;6054;50.966;7.094;2023-03-04T03:23:02;10.70;45.60
11989;DHT22;6054;50.966;7.094;2023-03-04T03:25:29;10.70;45.50
11989;DHT22;6054;50.966;7.094;2023-03-04T03:27:56;10.70;45.60
11989;DHT22;6054;50.966;7.094;2023-03-04T03:30:23;10.70;45.40
11989;DHT22;6054;50.966;7.094;2023-03-04T03:32:49;11.00;45.40
11989;DHT22;6054;50.966;7.094;2023-03-04T03:35:18;10.80;45.50
11989;DHT22;6054;50.966;7.094;2023-03-04T03:37:44;10.70;45.60
11989;DHT22;6054;50.966;7.094;2023-03-04T03:40:13;10.70;45.50
11989;DHT22;6054;50.966;7.094;2023-03-04T03:42:40;10.70;45.30
11989;DHT22;6054;50.966;7.094;2023-03-04T03:45:07;10.70;45.30
11989;DHT22;6054;50.966;7.094;2023-03-04T03:47:34;10.70;46.10
11989;DHT22;6054;50.966;7.094;2023-03-04T03:50:01;10.70;45.70
11989;DHT22;6054;50.966;7.094;2023-03-04T03:52:29;10.70;46.00
11989;DHT22;6054;50.966;7.094;2023-03-04T03:54:56;10.70;45.40
11989;DHT22;6054;50.966;7.094;2023-03-04T03:57:26;10.70;45.30
11989;DHT22;6054;50.966;7.094;2023-03-04T03:59:53;10.70;45.50
11989;DHT22;6054;50.966;7.094;2023-03-04T04:02:19;10.70;45.90
11989;DHT22;6054;50.966;7.094;2023-03-04T04:04:47;10.70;45.70
11989;DHT22;6054;50.966;7.094;2023-03-04T04:07:13;10.70;45.70
11989;DHT22;6054;50.966;7.094;2023-03-04T04:09:42;10.80;46.00
11989;DHT22;6054;50.966;7.094;2023-03-04T04:12:09;10.70;45.60
11989;DHT22;6054;50.966;7.094;2023-03-04T04:14:36;10.80;46.30
11989;DHT22;6054;50.966;7.094;2023-03-04T04:17:03;10.80;45.90
11989;DHT22;6054;50.966;7.094;2023-03-04T04:19:30;10.80;45.90
11989;DHT22;6054;50.966;7.094;2023-03-04T04:21:57;10.80;46.20
11989;DHT22;6054;50.966;7.094;2023-03-04T04:24:23;10.80;46.20
11989;DHT22;6054;50.966;7.094;2023-03-04T04:26:51;10.80;46.40
11989;DHT22;6054;50.966;7.094;2023-03-04T04:29:18;10.80;46.30
11989;DHT22;6054;50.966;7.094;2023-03-04T04:31:45;10.80;46.30
11989;DHT22;6054;50.966;7.094;2023-03-04T04:34:12;10.80;46.10
11989;DHT22;6054;50.966;7.094;2023-03-04T04:36:39;10.80;46.20
11989;DHT22;6054;50.966;7.094;2023-03-04T04:39:06;10.80;46.30
11989;DHT22;6054;50.966;7.094;2023-03-04T04:41:36;10.80;46.20
11989;DHT22;6054;50.966;7.094;2023-03-04T04:44:05;10.90;46.60
11989;DHT22;6054;50.966;7.094;2023-03-04T04:46:32;10.80;46.20
11989;DHT22;6054;50.966;7.094;2023-03-04T04:48:59;10.70;46.20
11989;DHT22;6054;50.966;7.094;2023-03-04T04:51:26;10.80;46.60
11989;DHT22;6054;50.966;7.094;2023-03-04T04:53:52;10.80;46.50
11989;DHT22;6054;50.966;7.094;2023-03-04T04:56:21;10.80;46.50
11989;DHT22;6054;50.966;7.094;2023-03-04T04:58:49;10.80;46.70
11989;DHT22;6054;50.966;7.094;2023-03-04T05:01:17;10.80;46.50
11989;DHT22;6054;50.966;7.094;2023-03-04T05:03:44;10.80;46.40
11989;DHT22;6054;50.966;7.094;2023-03-04T05:06:13;10.80;46.20
11989;DHT22;6054;50.966;7.094;2023-03-04T05:08:40;10.70;46.30
11989;DHT22;6054;50.966;7.094;2023-03-04T05:11:07;10.80;46.50
11989;DHT22;6054;50.966;7.094;2023-03-04T05:13:34;10.80;46.60
11989;DHT22;6054;50.966;7.094;2023-03-04T05:16:01;10.80;46.40
11989;DHT22;6054;50.966;7.094;2023-03-04T05:18:29;10.70;46.40
11989;DHT22;6054;50.966;7.094;2023-03-04T05:20:57;10.70;46.50
11989;DHT22;6054;50.966;7.094;2023-03-04T05:23:25;10.80;46.80
11989;DHT22;6054;50.966;7.094;2023-03-04T05:25:51;10.80;46.70
11989;DHT22;6054;50.966;7.094;2023-03-04T05:28:19;10.80;46.60
11989;DHT22;6054;50.966;7.094;2023-03-04T05:30:46;10.80;46.40
11989;DHT22;6054;50.966;7.094;2023-03-04T05:33:14;10.90;46.90
11989;DHT22;6054;50.966;7.094;2023-03-04T05:35:43;10.70;46.70
11989;DHT22;6054;50.966;7.094;2023-03-04T05:38:12;10.80;46.70
11989;DHT22;6054;50.966;7.094;2023-03-04T05:40:40;10.80;46.70
11989;DHT22;6054;50.966;7.094;2023-03-04T05:43:07;10.80;46.90
11989;DHT22;6054;50.966;7.094;2023-03-04T05:45:34;10.80;46.80
11989;DHT22;6054;50.966;7.094;2023-03-04T05:48:01;10.70;46.60
11989;DHT22;6054;50.966;7.094;2023-03-04T05:50:29;10.70;46.60
11989;DHT22;6054;50.966;7.094;2023-03-04T05:52:57;10.80;46.90
11989;DHT22;6054;50.966;7.094;2023-03-04T05:55:25;10.80;46.70
11989;DHT22;6054;50.966;7.094;2023-03-04T05:57:52;10.80;46.80
11989;DHT22;6054;50.966;7.094;2023-03-04T06:00:19;10.80;46.90
11989;DHT22;6054;50.966;7.094;2023-03-04T06:02:46;10.80;47.00
11989;DHT22;6054;50.966;7.094;2023-03-04T06:05:13;10.80;46.50
11989;DHT22;6054;50.966;7.094;2023-03-04T06:07:40;10.80;46.90
11989;DHT22;6054;50.966;7.094;2023-03-04T06:10:12;11.00;47.10
11989;DHT22;6054;50.966;7.094;2023-03-04T06:12:39;10.80;47.10
11989;DHT22;6054;50.966;7.094;2023-03-04T06:15:07;10.80;47.00
11989;DHT22;6054;50.966;7.094;2023-03-04T06:17:35;10.80;47.10
11989;DHT22;6054;50.966;7.094;2023-03-04T06:20:02;10.80;46.70
11989;DHT22;6054;50.966;7.094;2023-03-04T06:22:30;10.80;47.10
11989;DHT22;6054;50.966;7.094;2023-03-04T06:24:56;10.80;46.90
11989;DHT22;6054;50.966;7.094;2023-03-04T06:27:25;10.80;46.90
11989;DHT22;6054;50.966;7.094;2023-03-04T06:29:52;10.80;47.10
11989;DHT22;6054;50.966;7.094;2023-03-04T06:32:19;10.80;46.80
11989;DHT22;6054;50.966;7.094;2023-03-04T06:34:46;10.80;47.00
11989;DHT22;6054;50.966;7.094;2023-03-04T06:37:12;10.90;46.90
11989;DHT22;6054;50.966;7.094;2023-03-04T06:39:39;10.90;47.00
11989;DHT22;6054;50.966;7.094;2023-03-04T06:42:06;10.80;47.00
11989;DHT22;6054;50.966;7.094;2023-03-04T06:44:34;10.90;46.80
11989;DHT22;6054;50.966;7.094;2023-03-04T06:47:01;10.90;46.90
11989;DHT22;6054;50.966;7.094;2023-03-04T06:49:27;10.90;47.10
11989;DHT22;6054;50.966;7.094;2023-03-04T06:51:54;10.90;47.00
11989;DHT22;6054;50.966;7.094;2023-03-04T06:54:21;10.90;47.00
11989;DHT22;6054;50.966;7.094;2023-03-04T06:56:48;10.90;47.10
11989;DHT22;6054;50.966;7.094;2023-03-04T06:59:15;10.90;47.30
11989;DHT22;6054;50.966;7.094;2023-03-04T07:01:43;11.00;47.30
11989;DHT22;6054;50.966;7.094;2023-03-04T07:04:11;11.00;47.50
11989;DHT22;6054;50.966;7.094;2023-03-04T07:06:38;10.90;47.70
11989;DHT22;6054;50.966;7.094;2023-03-04T07:09:05;10.90;47.10
11989;DHT22;6054;50.966;7.094;2023-03-04T07:11:32;11.30;47.70
11989;DHT22;6054;50.966;7.094;2023-03-04T07:13:59;10.90;47.30
11989;DHT22;6054;50.966;7.094;2023-03-04T07:16:25;11.00;47.40
11989;DHT22;6054;50.966;7.094;2023-03-04T07:18:53;10.90;47.30
11989;DHT22;6054;50.966;7.094;2023-03-04T07:21:20;11.00;47.50
11989;DHT22;6054;50.966;7.094;2023-03-04T07:23:47;11.00;47.40
11989;DHT22;6054;50.966;7.094;2023-03-04T07:26:14;11.00;47.30
11989;DHT22;6054;50.966;7.094;2023-03-04T07:28:41;11.00;47.70
11989;DHT22;6054;50.966;7.094;2023-03-04T07:31:10;11.00;47.70
11989;DHT22;6054;50.966;7.094;2023-03-04T07:33:37;11.10;48.00
11989;DHT22;6054;50.966;7.094;2023-03-04T07:36:05;11.00;47.50
11989;DHT22;6054;50.966;7.094;2023-03-04T07:38:32;11.10;47.70
11989;DHT22;6054;50.966;7.094;2023-03-04T07:40:59;11.10;47.60
11989;DHT22;6054;50.966;7.094;2023-03-04T07:43:26;11.10;47.90
11989;DHT22;6054;50.966;7.094;2023-03-04T07:45:58;11.10;47.50
11989;DHT22;6054;50.966;7.094;2023-03-04T07:48:26;11.10;48.00
11989;DHT22;6054;50.966;7.094;2023-03-04T07:51:06;11.30;48.00
11989;DHT22;6054;50.966;7.094;2023-03-04T07:53:34;11.10;48.00
11989;DHT22;6054;50.966;7.094;2023-03-04T07:56:02;11.10;47.90
11989;DHT22;6054;50.966;7.094;2023-03-04T07:58:29;11.20;48.00
11989;DHT22;6054;50.966;7.094;2023-03-04T08:00:56;11.10;48.00
11989;DHT22;6054;50.966;7.094;2023-03-04T08:03:23;11.10;48.00
11989;DHT22;6054;50.966;7.094;2023-03-04T08:05:50;11.20;48.20
11989;DHT22;6054;50.966;7.094;2023-03-04T08:08:18;11.20;47.90
11989;DHT22;6054;50.966;7.094;2023-03-04T08:10:45;11.20;47.90
11989;DHT22;6054;50.966;7.094;2023-03-04T08:13:12;11.20;47.90
11989;DHT22;6054;50.966;7.094;2023-03-04T08:15:40;11.30;48.10
11989;DHT22;6054;50.966;7.094;2023-03-04T08:18:07;11.30;48.30
11989;DHT22;6054;50.966;7.094;2023-03-04T08:20:34;11.30;48.10
11989;DHT22;6054;50.966;7.094;2023-03-04T08:23:01;11.50;48.20
11989;DHT22;6054;50.966;7.094;2023-03-04T08:25:29;11.40;48.10
11989;DHT22;6054;50.966;7.094;2023-03-04T08:27:55;11.40;48.10
11989;DHT22;6054;50.966;7.094;2023-03-04T08:30:22;11.40;48.10
11989;DHT22;6054;50.966;7.094;2023-03-04T08:32:49;11.50;48.20
11989;DHT22;6054;50.966;7.094;2023-03-04T08:35:16;11.50;48.30
11989;DHT22;6054;50.966;7.094;2023-03-04T08:37:43;11.70;48.50
11989;DHT22;6054;50.966;7.094;2023-03-04T08:40:11;11.50;48.40
11989;DHT22;6054;50.966;7.094;2023-03-04T08:42:40;11.60;48.70
11989;DHT22;6054;50.966;7.094;2023-03-04T08:45:08;11.60;48.70
11989;DHT22;6054;50.966;7.094;2023-03-04T08:47:35;11.70;48.70
11989;DHT22;6054;50.966;7.094;2023-03-04T08:50:02;11.70;48.60
11989;DHT22;6054;50.966;7.094;2023-03-04T08:52:29;11.80;48.60
11989;DHT22;6054;50.966;7.094;2023-03-04T08:54:56;11.80;48.20
11989;DHT22;6054;50.966;7.094;2023-03-04T08:57:23;11.80;48.10
11989;DHT22;6054;50.966;7.094;2023-03-04T08:59:51;11.80;48.00
11989;DHT22;6054;50.966;7.094;2023-03-04T09:02:18;11.80;48.00
11989;DHT22;6054;50.966;7.094;2023-03-04T09:04:44;11.80;47.70
11989;DHT22;6054;50.966;7.094;2023-03-04T09:07:11;11.90;47.60
11989;DHT22;6054;50.966;7.094;2023-03-04T09:09:38;11.80;47.30
11989;DHT22;6054;50.966;7.094;2023-03-04T09:12:06;11.80;47.40
11989;DHT22;6054;50.966;7.094;2023-03-04T09:14:33;11.80;47.60
11989;DHT22;6054;50.966;7.094;2023-03-04T09:17:01;11.90;47.40
11989;DHT22;6054;50.966;7.094;2023-03-04T09:19:28;11.90;47.50
11989;DHT22;6054;50.966;7.094;2023-03-04T09:21:55;11.90;47.60
11989;DHT22;6054;50.966;7.094;2023-03-04T09:24:24;11.90;48.50
11989;DHT22;6054;50.966;7.094;2023-03-04T09:26:51;12.00;47.80
11989;DHT22;6054;50.966;7.094;2023-03-04T09:29:18;12.00;48.00
11989;DHT22;6054;50.966;7.094;2023-03-04T09:31:44;12.10;47.70
11989;DHT22;6054;50.966;7.094;2023-03-04T09:34:13;12.10;47.50
11989;DHT22;6054;50.966;7.094;2023-03-04T09:36:39;12.20;47.80
11989;DHT22;6054;50.966;7.094;2023-03-04T09:39:06;12.30;47.70
11989;DHT22;6054;50.966;7.094;2023-03-04T09:41:36;12.30;47.40
11989;DHT22;6054;50.966;7.094;2023-03-04T09:44:10;12.30;47.50
11989;DHT22;6054;50.966;7.094;2023-03-04T09:46:40;12.60;47.80
11989;DHT22;6054;50.966;7.094;2023-03-04T09:49:09;12.40;47.30
11989;DHT22;6054;50.966;7.094;2023-03-04T09:51:54;12.50;47.10
11989;DHT22;6054;50.966;7.094;2023-03-04T09:54:35;12.50;47.10
11989;DHT22;6054;50.966;7.094;2023-03-04T09:57:17;12.50;47.00
11989;DHT22;6054;50.966;7.094;2023-03-04T09:59:52;12.70;47.10
11989;DHT22;6054;50.966;7.094;2023-03-04T10:02:30;12.60;47.10
11989;DHT22;6054;50.966;7.094;2023-03-04T10:05:03;12.90;47.00
11989;DHT22;6054;50.966;7.094;2023-03-04T10:07:34;12.70;46.80
11989;DHT22;6054;50.966;7.094;2023-03-04T10:10:04;12.70;46.90
11989;DHT22;6054;50.966;7.094;2023-03-04T10:12:36;12.80;47.00
11989;DHT22;6054;50.966;7.094;2023-03-04T10:15:13;12.80;46.70
11989;DHT22;6054;50.966;7.094;2023-03-04T10:17:46;12.90;46.90
11989;DHT22;6054;50.966;7.094;2023-03-04T10:20:18;12.90;47.00
11989;DHT22;6054;50.966;7.094;2023-03-04T10:22:49;12.80;46.90
11989;DHT22;6054;50.966;7.094;2023-03-04T10:25:18;12.90;47.70
11989;DHT22;6054;50.966;7.094;2023-03-04T10:27:49;12.90;47.30
11989;DHT22;6054;50.966;7.094;2023-03-04T10:30:22;12.90;47.40
11989;DHT22;6054;50.966;7.094;2023-03-04T10:32:52;12.90;47.30
11989;DHT22;6054;50.966;7.094;2023-03-04T10:35:22;12.90;46.70
11989;DHT22;6054;50.966;7.094;2023-03-04T10:37:53;13.10;47.40
11989;DHT22;6054;50.966;7.094;2023-03-04T10:40:22;12.90;46.90
11989;DHT22;6054;50.966;7.094;2023-03-04T10:42:58;12.90;47.40
11989;DHT22;6054;50.966;7.094;2023-03-04T10:45:26;13.00;47.70
11989;DHT22;6054;50.966;7.094;2023-03-04T10:47:56;13.00;47.70
11989;DHT22;6054;50.966;7.094;2023-03-04T10:50:24;13.00;47.50
11989;DHT22;6054;50.966;7.094;2023-03-04T10:52:54;13.10;48.40
11989;DHT22;6054;50.966;7.094;2023-03-04T10:55:23;13.10;47.60
11989;DHT22;6054;50.966;7.094;2023-03-04T10:57:53;13.20;47.70
11989;DHT22;6054;50.966;7.094;2023-03-04T11:00:26;13.20;47.20
11989;DHT22;6054;50.966;7.094;2023-03-04T11:03:27;13.30;47.40
11989;DHT22;6054;50.966;7.094;2023-03-04T11:06:15;13.30;47.50
11989;DHT22;6054;50.966;7.094;2023-03-04T11:08:52;13.50;47.60
11989;DHT22;6054;50.966;7.094;2023-03-04T11:11:24;13.30;47.80
11989;DHT22;6054;50.966;7.094;2023-03-04T11:13:57;13.30;48.20
11989;DHT22;6054;50.966;7.094;2023-03-04T11:16:26;13.30;48.50
11989;DHT22;6054;50.966;7.094;2023-03-04T11:18:59;13.30;48.80
11989;DHT22;6054;50.966;7.094;2023-03-04T11:21:33;13.50;48.80
11989;DHT22;6054;50.966;7.094;2023-03-04T11:24:05;13.40;48.90
11989;DHT22;6054;50.966;7.094;2023-03-04T11:26:39;13.50;48.80
11989;DHT22;6054;50.966;7.094;2023-03-04T11:29:12;13.60;48.90
11989;DHT22;6054;50.966;7.094;2023-03-04T11:31:44;13.80;48.60
11989;DHT22;6054;50.966;7.094;2023-03-04T11:36:50;13.90;48.00
11989;DHT22;6054;50.966;7.094;2023-03-04T11:39:26;14.00;47.70
11989;DHT22;6054;50.966;7.094;2023-03-04T11:41:59;14.10;47.30
11989;DHT22;6054;50.966;7.094;2023-03-04T11:44:29;14.40;47.40
11989;DHT22;6054;50.966;7.094;2023-03-04T11:47:19;14.20;46.60
11989;DHT22;6054;50.966;7.094;2023-03-04T11:49:58;14.30;46.60
11989;DHT22;6054;50.966;7.094;2023-03-04T11:52:42;14.20;45.80
11989;DHT22;6054;50.966;7.094;2023-03-04T11:55:26;14.20;45.90
11989;DHT22;6054;50.966;7.094;2023-03-04T11:58:02;14.20;45.70
11989;DHT22;6054;50.966;7.094;2023-03-04T12:00:37;14.10;45.70
11989;DHT22;6054;50.966;7.094;2023-03-04T12:03:30;14.10;45.80
11989;DHT22;6054;50.966;7.094;2023-03-04T12:06:07;14.10;45.80
11989;DHT22;6054;50.966;7.094;2023-03-04T12:08:51;14.40;46.00
11989;DHT22;6054;50.966;7.094;2023-03-04T12:11:28;14.10;46.10
11989;DHT22;6054;50.966;7.094;2023-03-04T12:14:05;14.20;46.00
11989;DHT22;6054;50.966;7.094;2023-03-04T12:17:10;14.40;46.20
11989;DHT22;6054;50.966;7.094;2023-03-04T12:19:50;14.10;46.00
11989;DHT22;6054;50.966;7.094;2023-03-04T12:22:31;14.10;46.00
11989;DHT22;6054;50.966;7.094;2023-03-04T12:25:23;14.10;46.00
11989;DHT22;6054;50.966;7.094;2023-03-04T12:28:02;14.10;46.20
11989;DHT22;6054;50.966;7.094;2023-03-04T12:30:39;14.10;46.10
11989;DHT22;6054;50.966;7.094;2023-03-04T12:33:17;14.10;46.00
11989;DHT22;6054;50.966;7.094;2023-03-04T12:35:55;14.10;46.10
11989;DHT22;6054;50.966;7.094;2023-03-04T12:38:42;14.10;46.00
11989;DHT22;6054;50.966;7.094;2023-03-04T12:41:21;14.10;46.10
11989;DHT22;6054;50.966;7.094;2023-03-04T12:43:59;14.00;46.10
11989;DHT22;6054;50.966;7.094;2023-03-04T12:46:36;14.10;46.20
11989;DHT22;6054;50.966;7.094;2023-03-04T12:49:21;14.10;46.20
11989;DHT22;6054;50.966;7.094;2023-03-04T12:51:56;14.00;46.30
11989;DHT22;6054;50.966;7.094;2023-03-04T12:54:30;14.20;46.40
11989;DHT22;6054;50.966;7.094;2023-03-04T12:57:01;14.20;46.20
11989;DHT22;6054;50.966;7.094;2023-03-04T12:59:36;14.30;46.40
11989;DHT22;6054;50.966;7.094;2023-03-04T13:02:28;14.30;46.30
11989;DHT22;6054;50.966;7.094;2023-03-04T13:05:02;14.40;46.10
11989;DHT22;6054;50.966;7.094;2023-03-04T13:07:39;14.40;46.00
11989;DHT22;6054;50.966;7.094;2023-03-04T13:10:11;14.70;46.10
11989;DHT22;6054;50.966;7.094;2023-03-04T13:12:49;14.50;45.40
11989;DHT22;6054;50.966;7.094;2023-03-04T13:15:28;14.70;45.40
11989;DHT22;6054;50.966;7.094;2023-03-04T13:17:56;14.60;45.30
11989;DHT22;6054;50.966;7.094;2023-03-04T13:20:32;14.50;45.20
11989;DHT22;6054;50.966;7.094;2023-03-04T13:22:59;14.60;45.40
11989;DHT22;6054;50.966;7.094;2023-03-04T13:25:32;14.60;45.30
11989;DHT22;6054;50.966;7.094;2023-03-04T13:28:26;14.60;45.10
11989;DHT22;6054;50.966;7.094;2023-03-04T13:31:21;14.60;45.00
11989;DHT22;6054;50.966;7.094;2023-03-04T13:34:03;14.60;44.90
11989;DHT22;6054;50.966;7.094;2023-03-04T13:36:54;14.60;44.90
11989;DHT22;6054;50.966;7.094;2023-03-04T13:39:34;14.80;45.10
11989;DHT22;6054;50.966;7.094;2023-03-04T13:42:10;14.60;45.00
11989;DHT22;6054;50.966;7.094;2023-03-04T13:45:00;14.60;44.90
11989;DHT22;6054;50.966;7.094;2023-03-04T13:47:45;14.60;44.80
11989;DHT22;6054;50.966;7.094;2023-03-04T13:50:32;14.60;45.00
11989;DHT22;6054;50.966;7.094;2023-03-04T13:55:42;14.60;45.00
11989;DHT22;6054;50.966;7.094;2023-03-04T13:58:16;14.90;45.00
11989;DHT22;6054;50.966;7.094;2023-03-04T14:00:47;14.70;45.10
11989;DHT22;6054;50.966;7.094;2023-03-04T14:03:21;14.90;45.10
11989;DHT22;6054;50.966;7.094;2023-03-04T14:06:10;14.70;45.10
11989;DHT22;6054;50.966;7.094;2023-03-04T14:08:37;14.70;45.10
11989;DHT22;6054;50.966;7.094;2023-03-04T14:11:04;14.70;44.70
11989;DHT22;6054;50.966;7.094;2023-03-04T14:13:31;14.70;44.70
11989;DHT22;6054;50.966;7.094;2023-03-04T14:15:58;14.70;44.80
11989;DHT22;6054;50.966;7.094;2023-03-04T14:18:26;14.70;45.10
11989;DHT22;6054;50.966;7.094;2023-03-04T14:20:57;14.70;45.10
11989;DHT22;6054;50.966;7.094;2023-03-04T14:23:26;14.70;45.50
11989;DHT22;6054;50.966;7.094;2023-03-04T14:26:04;14.70;45.70
11989;DHT22;6054;50.966;7.094;2023-03-04T14:28:30;14.70;45.80
11989;DHT22;6054;50.966;7.094;2023-03-04T14:30:57;14.70;45.70
11989;DHT22;6054;50.966;7.094;2023-03-04T14:33:27;14.60;45.90
11989;DHT22;6054;50.966;7.094;2023-03-04T14:35:57;14.60;46.30
11989;DHT22;6054;50.966;7.094;2023-03-04T14:38:26;14.60;46.30
11989;DHT22;6054;50.966;7.094;2023-03-04T14:40:56;14.60;46.50
11989;DHT22;6054;50.966;7.094;2023-03-04T14:43:26;14.60;46.80
11989;DHT22;6054;50.966;7.094;2023-03-04T14:45:57;14.50;46.90
11989;DHT22;6054;50.966;7.094;2023-03-04T14:48:30;14.60;47.00
11989;DHT22;6054;50.966;7.094;2023-03-04T14:50:58;14.60;47.10
11989;DHT22;6054;50.966;7.094;2023-03-04T14:53:27;14.60;47.10
11989;DHT22;6054;50.966;7.094;2023-03-04T14:55:56;14.60;47.10
11989;DHT22;6054;50.966;7.094;2023-03-04T14:58:25;14.70;47.20
11989;DHT22;6054;50.966;7.094;2023-03-04T15:01:03;14.60;46.90
11989;DHT22;6054;50.966;7.094;2023-03-04T15:03:33;14.80;47.20
11989;DHT22;6054;50.966;7.094;2023-03-04T15:06:15;14.60;46.90
11989;DHT22;6054;50.966;7.094;2023-03-04T15:08:43;14.60;47.10
11989;DHT22;6054;50.966;7.094;2023-03-04T15:11:19;14.60;47.00
11989;DHT22;6054;50.966;7.094;2023-03-04T15:13:48;14.70;47.20
11989;DHT22;6054;50.966;7.094;2023-03-04T15:16:16;14.60;47.00
11989;DHT22;6054;50.966;7.094;2023-03-04T15:18:55;14.70;47.10
11989;DHT22;6054;50.966;7.094;2023-03-04T15:21:33;14.70;47.10
11989;DHT22;6054;50.966;7.094;2023-03-04T15:24:01;14.70;47.10
11989;DHT22;6054;50.966;7.094;2023-03-04T15:26:28;14.90;47.10
11989;DHT22;6054;50.966;7.094;2023-03-04T15:28:55;14.70;47.00
11989;DHT22;6054;50.966;7.094;2023-03-04T15:31:23;14.70;46.30
11989;DHT22;6054;50.966;7.094;2023-03-04T15:33:51;14.70;47.00
11989;DHT22;6054;50.966;7.094;2023-03-04T15:36:21;14.80;47.00
11989;DHT22;6054;50.966;7.094;2023-03-04T15:38:50;14.70;47.10
11989;DHT22;6054;50.966;7.094;2023-03-04T15:41:21;14.70;47.00
11989;DHT22;6054;50.966;7.094;2023-03-04T15:43:48;14.80;47.10
11989;DHT22;6054;50.966;7.094;2023-03-04T15:46:15;14.80;46.90
11989;DHT22;6054;50.966;7.094;2023-03-04T15:48:41;14.70;46.70
11989;DHT22;6054;50.966;7.094;2023-03-04T15:51:12;14.70;46.90
11989;DHT22;6054;50.966;7.094;2023-03-04T15:53:42;14.70;47.00
11989;DHT22;6054;50.966;7.094;2023-03-04T15:56:12;14.70;47.30
11989;DHT22;6054;50.966;7.094;2023-03-04T15:58:40;14.70;47.40
11989;DHT22;6054;50.966;7.094;2023-03-04T16:01:09;14.70;47.40
11989;DHT22;6054;50.966;7.094;2023-03-04T16:03:39;14.70;47.50
11989;DHT22;6054;50.966;7.094;2023-03-04T16:06:08;14.80;47.10
11989;DHT22;6054;50.966;7.094;2023-03-04T16:08:36;14.70;47.50